»·PEaware :: N76450 KSNA-KSBP

N76450 :: KSNA-KSBP

FLIGHT INFORMATION

Flight Status: Arrived
Operator: Privately registered:
United States
More flights under this callsign
Pilot: Craig B. (17752)
Aircraft: CESSNA 172 SKYHAWK
(C172)
More flights by this aircraft type
Origin: KSNA John Wayne-Orange Co
United States
Destination: KSBP San Luis Co Regl
United States
More flights between these airports :: More routes between these airports
Route: +ANAHM1 VTU RZS MQO
File this flight plan on PilotEdge
Remarks: Read clearance slowly, please. Medical issue. Thank you.
Altitude:
(Current/Filed)
8,000ft
Speed:
(Current/Filed)
95kts
Departed: 10-Sep-18 07:25 AM
Arrived: 10-Sep-18 09:23 AM
Distance/Time
Traveled:
166nm/1:58
Distance/Time
To Go:
Arrived

Flight Plot

Page will automatically refresh every two minutes.

Flight plan parsing failed; only flown route is shown


Map Options




Map Legend


Flown Route
Filed Route
Departure Airport
Arrival Airport
Navaid (VOR, NDB)
Fix

Horizontal Profiles

Position Reports

Time Latitude Longitude Heading Altitude Ground
Speed
10-Sep-18 07:08 33.667411 -117.870806 37 59ft 0kts
10-Sep-18 07:09 33.667412 -117.870805 37 59ft 0kts
10-Sep-18 07:10 33.667412 -117.870804 37 59ft 0kts
10-Sep-18 07:11 33.667413 -117.870804 37 59ft 0kts
10-Sep-18 07:12 33.667414 -117.870803 37 59ft 0kts
10-Sep-18 07:13 33.667414 -117.870803 37 59ft 0kts
10-Sep-18 07:14 33.667415 -117.870802 37 59ft 0kts
10-Sep-18 07:15 33.667416 -117.870802 37 59ft 0kts
10-Sep-18 07:16 33.667416 -117.870801 37 59ft 0kts
10-Sep-18 07:17 33.667417 -117.870800 37 59ft 0kts
10-Sep-18 07:18 33.667417 -117.870800 37 59ft 0kts
10-Sep-18 07:19 33.667418 -117.870799 37 59ft 0kts
10-Sep-18 07:20 33.667419 -117.870799 37 59ft 0kts
10-Sep-18 07:21 33.668115 -117.871801 346 59ft 9kts
10-Sep-18 07:22 33.671705 -117.868637 42 59ft 26kts
10-Sep-18 07:23 33.674672 -117.866651 23 59ft 20kts
10-Sep-18 07:24 33.678738 -117.864216 24 59ft 8kts
10-Sep-18 07:25 33.679574 -117.863834 328 59ft 0kts
10-Sep-18 07:26 33.679575 -117.863835 328 59ft 0kts
10-Sep-18 07:27 33.676742 -117.866248 208 59ft 59kts
10-Sep-18 07:28 33.660749 -117.876654 205 579ft 60kts
10-Sep-18 07:29 33.651280 -117.893601 236 1270ft 62kts
10-Sep-18 07:30 33.642995 -117.911459 234 1935ft 59kts
10-Sep-18 07:31 33.636116 -117.928101 293 2464ft 71kts
10-Sep-18 07:32 33.650527 -117.941336 316 3050ft 63kts
10-Sep-18 07:33 33.664942 -117.953636 316 3522ft 64kts
10-Sep-18 07:34 33.679499 -117.966148 319 3960ft 64kts
10-Sep-18 07:35 33.694292 -117.978774 319 4370ft 66kts
10-Sep-18 07:36 33.709287 -117.991582 321 4847ft 66kts
10-Sep-18 07:37 33.724405 -118.004495 322 5281ft 67kts
10-Sep-18 07:38 33.739633 -118.017504 323 5689ft 67kts
10-Sep-18 07:39 33.755042 -118.030674 324 6066ft 67kts
10-Sep-18 07:40 33.770493 -118.043880 325 6425ft 68kts
10-Sep-18 07:41 33.783947 -118.059127 250 6692ft 80kts
10-Sep-18 07:42 33.781553 -118.083205 263 7098ft 70kts
10-Sep-18 07:43 33.780171 -118.106759 264 7419ft 71kts
10-Sep-18 07:44 33.778766 -118.130585 264 7727ft 71kts
10-Sep-18 07:45 33.777332 -118.154790 264 7998ft 75kts
10-Sep-18 07:46 33.775571 -118.184826 265 8020ft 104kts
10-Sep-18 07:47 33.773408 -118.221331 265 7993ft 110kts
10-Sep-18 07:48 33.772047 -118.258732 291 8011ft 120kts
10-Sep-18 07:49 33.796891 -118.286933 320 8004ft 126kts
10-Sep-18 07:50 33.822809 -118.314457 320 8000ft 122kts
10-Sep-18 07:51 33.847898 -118.341170 320 7999ft 117kts
10-Sep-18 07:52 33.872863 -118.367753 320 8002ft 125kts
10-Sep-18 07:53 33.899045 -118.395673 320 7986ft 126kts
10-Sep-18 07:54 33.924188 -118.422501 320 7971ft 113kts
10-Sep-18 07:55 33.940217 -118.454516 292 7994ft 118kts
10-Sep-18 07:56 33.951964 -118.491101 291 7977ft 113kts
10-Sep-18 07:57 33.963058 -118.525856 291 7984ft 110kts
10-Sep-18 07:58 33.974075 -118.560418 291 7985ft 110kts
10-Sep-18 07:59 33.985036 -118.594842 291 7985ft 110kts
10-Sep-18 08:00 33.996043 -118.629456 292 7983ft 110kts
10-Sep-18 08:01 34.007008 -118.663956 291 7985ft 110kts
10-Sep-18 08:02 34.017901 -118.698279 291 7985ft 109kts
10-Sep-18 08:03 34.028794 -118.732620 291 7989ft 109kts
10-Sep-18 08:04 34.039462 -118.766892 288 7988ft 109kts
10-Sep-18 08:05 34.048806 -118.801537 287 7988ft 108kts
10-Sep-18 08:06 34.056838 -118.831516 287 8008ft 120kts
10-Sep-18 08:07 34.067222 -118.870335 287 7971ft 115kts
10-Sep-18 08:08 34.078748 -118.913480 287 7998ft 123kts
10-Sep-18 08:09 34.088979 -118.951827 287 7982ft 112kts
10-Sep-18 08:10 34.096799 -118.981160 287 7992ft 109kts
10-Sep-18 08:11 34.106343 -119.016997 287 8013ft 120kts
10-Sep-18 08:12 34.118665 -119.055335 301 7990ft 120kts
10-Sep-18 08:13 34.136635 -119.088754 303 7995ft 119kts
10-Sep-18 08:14 34.157628 -119.126883 303 7984ft 110kts
10-Sep-18 08:15 34.171611 -119.152268 303 7992ft 108kts
10-Sep-18 08:16 34.188533 -119.183020 303 8005ft 114kts
10-Sep-18 08:17 34.206599 -119.215886 303 8003ft 122kts
10-Sep-18 08:18 34.225244 -119.249826 303 7981ft 114kts
10-Sep-18 08:19 34.242453 -119.281168 302 7975ft 109kts
10-Sep-18 08:20 34.259107 -119.311530 302 7981ft 107kts
10-Sep-18 08:21 34.275657 -119.341729 302 7985ft 107kts
10-Sep-18 08:22 34.292225 -119.371978 302 7988ft 107kts
10-Sep-18 08:23 34.308753 -119.402146 302 7991ft 107kts
10-Sep-18 08:24 34.325216 -119.432333 302 7993ft 107kts
10-Sep-18 08:25 34.341732 -119.462599 302 7995ft 107kts
10-Sep-18 08:26 34.358193 -119.492765 302 7995ft 107kts
10-Sep-18 08:27 34.374714 -119.523065 302 7995ft 107kts
10-Sep-18 08:28 34.391148 -119.553232 302 7993ft 107kts
10-Sep-18 08:29 34.407589 -119.583432 302 7991ft 107kts
10-Sep-18 08:30 34.424051 -119.613693 301 7989ft 107kts
10-Sep-18 08:31 34.440461 -119.643875 301 7985ft 107kts
10-Sep-18 08:32 34.457121 -119.674504 302 7994ft 113kts
10-Sep-18 08:33 34.474704 -119.706987 301 7978ft 114kts
10-Sep-18 08:34 34.492335 -119.739503 302 7991ft 121kts
10-Sep-18 08:35 34.511646 -119.773308 309 7975ft 119kts
10-Sep-18 08:36 34.533300 -119.802427 311 7967ft 110kts
10-Sep-18 08:37 34.553707 -119.829268 311 7978ft 107kts
10-Sep-18 08:38 34.573926 -119.855856 311 7980ft 106kts
10-Sep-18 08:39 34.594071 -119.882366 311 7980ft 106kts
10-Sep-18 08:40 34.614193 -119.908865 310 7977ft 107kts
10-Sep-18 08:41 34.634392 -119.935488 310 7977ft 106kts
10-Sep-18 08:42 34.655200 -119.962966 310 7782ft 122kts
10-Sep-18 08:43 34.679572 -119.995205 311 7208ft 134kts
10-Sep-18 08:44 34.705553 -120.029604 312 6601ft 144kts
10-Sep-18 08:45 34.732208 -120.064892 314 6001ft 135kts
10-Sep-18 08:46 34.755780 -120.096003 314 5972ft 116kts
10-Sep-18 08:47 34.777571 -120.124824 314 5993ft 119kts
10-Sep-18 08:48 34.799915 -120.154477 314 5980ft 115kts
10-Sep-18 08:49 34.821389 -120.182959 313 5991ft 113kts
10-Sep-18 08:50 34.843021 -120.211700 313 6013ft 120kts
10-Sep-18 08:51 34.865636 -120.241801 313 5995ft 115kts
10-Sep-18 08:52 34.886935 -120.270113 313 6008ft 112kts
10-Sep-18 08:53 34.908008 -120.298179 313 6010ft 112kts
10-Sep-18 08:54 34.928433 -120.326918 309 6012ft 112kts
10-Sep-18 08:55 34.947604 -120.356895 308 6013ft 112kts
10-Sep-18 08:56 34.966933 -120.387445 308 5874ft 122kts
10-Sep-18 08:57 34.989169 -120.422169 308 5282ft 133kts
10-Sep-18 08:58 35.012152 -120.457963 308 4663ft 135kts
10-Sep-18 08:59 35.035557 -120.494430 308 4066ft 135kts
10-Sep-18 09:00 35.057351 -120.528207 308 4003ft 120kts
10-Sep-18 09:01 35.078060 -120.560255 308 4008ft 121kts
10-Sep-18 09:02 35.098928 -120.592578 308 3997ft 118kts
10-Sep-18 09:03 35.119147 -120.623864 308 3998ft 116kts
10-Sep-18 09:04 35.139594 -120.655379 308 4006ft 123kts
10-Sep-18 09:05 35.160685 -120.687893 308 3990ft 116kts
10-Sep-18 09:06 35.180870 -120.719068 308 3994ft 115kts
10-Sep-18 09:07 35.202698 -120.748788 312 4003ft 121kts
10-Sep-18 09:08 35.224873 -120.778633 312 3982ft 111kts
10-Sep-18 09:09 35.245034 -120.805805 312 3992ft 106kts
10-Sep-18 09:10 35.265273 -120.833165 312 4001ft 112kts
10-Sep-18 09:11 35.286287 -120.861557 312 3986ft 110kts
10-Sep-18 09:12 35.306658 -120.889096 312 3986ft 106kts
10-Sep-18 09:13 35.326477 -120.915870 312 3988ft 106kts
10-Sep-18 09:14 35.349326 -120.934145 4 4014ft 103kts
10-Sep-18 09:15 35.377183 -120.927284 65 3976ft 105kts
10-Sep-18 09:16 35.373253 -120.891975 98 3988ft 106kts
10-Sep-18 09:17 35.365076 -120.857166 116 3994ft 108kts
10-Sep-18 09:18 35.346424 -120.827412 132 3960ft 115kts
10-Sep-18 09:19 35.323175 -120.794401 125 3189ft 138kts
10-Sep-18 09:20 35.303166 -120.756843 123 2266ft 115kts
10-Sep-18 09:21 35.286289 -120.726428 126 1691ft 103kts
10-Sep-18 09:22 35.271756 -120.701426 127 1280ft 89kts
10-Sep-18 09:23 35.257743 -120.676759 126 823ft 86kts
10-Sep-18 09:24 35.244608 -120.653704 126 378ft 79kts
10-Sep-18 09:25 35.238224 -120.641926 90 215ft 10kts
10-Sep-18 09:26 35.237636 -120.639811 108 215ft 11kts
10-Sep-18 09:27 35.237691 -120.636975 90 215ft 0kts

Navigation Log

Ident Type
Flight plan parsing failed, navigation log unavailable